sensor_id;sensor_type;location;lat;lon;timestamp;P1;durP1;ratioP1;P2;durP2;ratioP2
19836;SDS011;10079;55.740;37.662;2023-05-19T00:02:18;4.07;;;3.30;;
19836;SDS011;10079;55.740;37.662;2023-05-19T00:05:21;3.97;;;3.20;;
19836;SDS011;10079;55.740;37.662;2023-05-19T00:08:24;3.50;;;3.20;;
19836;SDS011;10079;55.740;37.662;2023-05-19T00:11:27;3.27;;;2.97;;
19836;SDS011;10079;55.740;37.662;2023-05-19T00:14:30;3.00;;;2.57;;
19836;SDS011;10079;55.740;37.662;2023-05-19T00:17:36;4.30;;;2.67;;
19836;SDS011;10079;55.740;37.662;2023-05-19T00:20:47;2.83;;;2.60;;
19836;SDS011;10079;55.740;37.662;2023-05-19T00:23:50;4.23;;;2.37;;
19836;SDS011;10079;55.740;37.662;2023-05-19T00:26:56;2.87;;;2.30;;
19836;SDS011;10079;55.740;37.662;2023-05-19T00:30:03;2.53;;;2.13;;
19836;SDS011;10079;55.740;37.662;2023-05-19T00:33:17;2.93;;;2.37;;
19836;SDS011;10079;55.740;37.662;2023-05-19T00:36:23;2.57;;;1.90;;
19836;SDS011;10079;55.740;37.662;2023-05-19T00:39:30;2.97;;;2.07;;
19836;SDS011;10079;55.740;37.662;2023-05-19T00:42:44;2.57;;;2.33;;
19836;SDS011;10079;55.740;37.662;2023-05-19T00:46:00;2.03;;;1.83;;
19836;SDS011;10079;55.740;37.662;2023-05-19T00:49:15;2.87;;;2.07;;
19836;SDS011;10079;55.740;37.662;2023-05-19T00:52:29;2.27;;;2.00;;
19836;SDS011;10079;55.740;37.662;2023-05-19T00:55:44;3.73;;;2.27;;
19836;SDS011;10079;55.740;37.662;2023-05-19T00:58:59;2.17;;;1.93;;
19836;SDS011;10079;55.740;37.662;2023-05-19T01:02:14;4.40;;;2.13;;
19836;SDS011;10079;55.740;37.662;2023-05-19T01:05:17;3.27;;;2.20;;
19836;SDS011;10079;55.740;37.662;2023-05-19T01:08:20;2.27;;;1.90;;
19836;SDS011;10079;55.740;37.662;2023-05-19T01:11:23;2.47;;;2.27;;
19836;SDS011;10079;55.740;37.662;2023-05-19T01:14:28;2.43;;;1.97;;
19836;SDS011;10079;55.740;37.662;2023-05-19T01:17:37;2.80;;;2.10;;
19836;SDS011;10079;55.740;37.662;2023-05-19T01:20:45;2.57;;;2.27;;
19836;SDS011;10079;55.740;37.662;2023-05-19T01:23:51;2.37;;;1.90;;
19836;SDS011;10079;55.740;37.662;2023-05-19T01:27:23;2.20;;;1.90;;
19836;SDS011;10079;55.740;37.662;2023-05-19T01:30:27;2.13;;;2.03;;
19836;SDS011;10079;55.740;37.662;2023-05-19T01:33:30;2.40;;;2.20;;
19836;SDS011;10079;55.740;37.662;2023-05-19T01:36:33;3.03;;;2.63;;
19836;SDS011;10079;55.740;37.662;2023-05-19T01:39:36;1.67;;;1.57;;
19836;SDS011;10079;55.740;37.662;2023-05-19T01:42:42;2.10;;;1.67;;
19836;SDS011;10079;55.740;37.662;2023-05-19T01:45:47;1.47;;;1.30;;
19836;SDS011;10079;55.740;37.662;2023-05-19T01:48:50;1.60;;;1.40;;
19836;SDS011;10079;55.740;37.662;2023-05-19T01:51:56;1.97;;;1.77;;
19836;SDS011;10079;55.740;37.662;2023-05-19T01:55:03;2.43;;;1.70;;
19836;SDS011;10079;55.740;37.662;2023-05-19T01:58:21;2.23;;;1.70;;
19836;SDS011;10079;55.740;37.662;2023-05-19T02:01:28;1.97;;;1.77;;
19836;SDS011;10079;55.740;37.662;2023-05-19T02:04:39;2.30;;;2.00;;
19836;SDS011;10079;55.740;37.662;2023-05-19T02:07:51;2.50;;;2.30;;
19836;SDS011;10079;55.740;37.662;2023-05-19T02:10:54;3.23;;;2.53;;
19836;SDS011;10079;55.740;37.662;2023-05-19T02:13:58;4.07;;;2.67;;
19836;SDS011;10079;55.740;37.662;2023-05-19T02:17:02;3.33;;;3.03;;
19836;SDS011;10079;55.740;37.662;2023-05-19T02:20:18;4.67;;;3.20;;
19836;SDS011;10079;55.740;37.662;2023-05-19T02:23:33;6.07;;;2.80;;
19836;SDS011;10079;55.740;37.662;2023-05-19T02:26:48;5.60;;;3.23;;
19836;SDS011;10079;55.740;37.662;2023-05-19T02:30:02;4.93;;;2.77;;
19836;SDS011;10079;55.740;37.662;2023-05-19T02:33:05;3.67;;;2.87;;
19836;SDS011;10079;55.740;37.662;2023-05-19T02:36:20;4.33;;;2.50;;
19836;SDS011;10079;55.740;37.662;2023-05-19T02:39:23;4.30;;;2.90;;
19836;SDS011;10079;55.740;37.662;2023-05-19T02:42:26;3.83;;;2.43;;
19836;SDS011;10079;55.740;37.662;2023-05-19T02:45:28;5.30;;;2.30;;
19836;SDS011;10079;55.740;37.662;2023-05-19T02:48:31;3.03;;;2.73;;
19836;SDS011;10079;55.740;37.662;2023-05-19T02:51:34;3.33;;;2.83;;
19836;SDS011;10079;55.740;37.662;2023-05-19T02:54:37;3.80;;;2.63;;
19836;SDS011;10079;55.740;37.662;2023-05-19T02:57:40;5.03;;;2.57;;
19836;SDS011;10079;55.740;37.662;2023-05-19T03:00:43;3.10;;;2.60;;
19836;SDS011;10079;55.740;37.662;2023-05-19T03:03:46;2.67;;;2.10;;
19836;SDS011;10079;55.740;37.662;2023-05-19T03:06:49;3.93;;;2.57;;
19836;SDS011;10079;55.740;37.662;2023-05-19T03:09:52;4.10;;;2.73;;
19836;SDS011;10079;55.740;37.662;2023-05-19T03:12:58;3.73;;;2.87;;
19836;SDS011;10079;55.740;37.662;2023-05-19T03:16:05;4.37;;;2.93;;
19836;SDS011;10079;55.740;37.662;2023-05-19T03:19:08;2.93;;;2.60;;
19836;SDS011;10079;55.740;37.662;2023-05-19T03:22:11;4.23;;;2.60;;
19836;SDS011;10079;55.740;37.662;2023-05-19T03:35:48;3.73;;;3.00;;
19836;SDS011;10079;55.740;37.662;2023-05-19T03:38:54;3.33;;;2.80;;
19836;SDS011;10079;55.740;37.662;2023-05-19T03:42:00;2.80;;;2.50;;
19836;SDS011;10079;55.740;37.662;2023-05-19T03:45:07;4.20;;;2.60;;
19836;SDS011;10079;55.740;37.662;2023-05-19T03:48:23;4.40;;;2.90;;
19836;SDS011;10079;55.740;37.662;2023-05-19T03:51:29;5.23;;;3.00;;
19836;SDS011;10079;55.740;37.662;2023-05-19T03:54:32;5.00;;;3.40;;
19836;SDS011;10079;55.740;37.662;2023-05-19T03:57:47;3.97;;;2.80;;
19836;SDS011;10079;55.740;37.662;2023-05-19T04:21:51;3.93;;;3.00;;
19836;SDS011;10079;55.740;37.662;2023-05-19T04:24:54;5.23;;;3.30;;
19836;SDS011;10079;55.740;37.662;2023-05-19T04:28:00;5.40;;;4.03;;
19836;SDS011;10079;55.740;37.662;2023-05-19T04:31:12;6.47;;;4.10;;
19836;SDS011;10079;55.740;37.662;2023-05-19T04:34:18;3.93;;;3.53;;
19836;SDS011;10079;55.740;37.662;2023-05-19T04:37:25;4.30;;;3.67;;
19836;SDS011;10079;55.740;37.662;2023-05-19T04:40:31;6.97;;;3.93;;
19836;SDS011;10079;55.740;37.662;2023-05-19T04:43:34;5.53;;;3.90;;
19836;SDS011;10079;55.740;37.662;2023-05-19T04:46:37;9.50;;;3.80;;
19836;SDS011;10079;55.740;37.662;2023-05-19T04:49:40;4.97;;;4.00;;
19836;SDS011;10079;55.740;37.662;2023-05-19T04:52:43;6.73;;;4.13;;
19836;SDS011;10079;55.740;37.662;2023-05-19T04:55:58;5.17;;;3.57;;
19836;SDS011;10079;55.740;37.662;2023-05-19T04:59:04;7.30;;;4.03;;
19836;SDS011;10079;55.740;37.662;2023-05-19T05:02:18;5.20;;;3.47;;
19836;SDS011;10079;55.740;37.662;2023-05-19T05:05:25;5.57;;;3.80;;
19836;SDS011;10079;55.740;37.662;2023-05-19T05:08:41;5.30;;;3.20;;
19836;SDS011;10079;55.740;37.662;2023-05-19T05:11:44;5.93;;;4.23;;
19836;SDS011;10079;55.740;37.662;2023-05-19T05:14:47;6.10;;;4.23;;
19836;SDS011;10079;55.740;37.662;2023-05-19T05:17:50;7.27;;;5.27;;
19836;SDS011;10079;55.740;37.662;2023-05-19T05:20:53;6.00;;;4.47;;
19836;SDS011;10079;55.740;37.662;2023-05-19T05:24:08;7.37;;;5.33;;
19836;SDS011;10079;55.740;37.662;2023-05-19T05:27:12;6.87;;;4.90;;
19836;SDS011;10079;55.740;37.662;2023-05-19T05:30:16;6.93;;;4.73;;
19836;SDS011;10079;55.740;37.662;2023-05-19T05:33:19;6.60;;;4.90;;
19836;SDS011;10079;55.740;37.662;2023-05-19T05:36:21;6.57;;;4.27;;
19836;SDS011;10079;55.740;37.662;2023-05-19T05:39:27;6.67;;;5.30;;
19836;SDS011;10079;55.740;37.662;2023-05-19T05:42:31;7.80;;;5.53;;
19836;SDS011;10079;55.740;37.662;2023-05-19T05:45:34;6.90;;;5.30;;
19836;SDS011;10079;55.740;37.662;2023-05-19T05:48:36;7.20;;;5.43;;
19836;SDS011;10079;55.740;37.662;2023-05-19T05:51:42;7.83;;;5.37;;
19836;SDS011;10079;55.740;37.662;2023-05-19T05:54:54;9.17;;;5.77;;
19836;SDS011;10079;55.740;37.662;2023-05-19T05:58:00;6.60;;;5.50;;
19836;SDS011;10079;55.740;37.662;2023-05-19T06:01:11;8.83;;;6.70;;
19836;SDS011;10079;55.740;37.662;2023-05-19T06:04:27;8.63;;;6.10;;
19836;SDS011;10079;55.740;37.662;2023-05-19T06:18:17;7.57;;;6.50;;
19836;SDS011;10079;55.740;37.662;2023-05-19T06:21:32;8.13;;;6.87;;
19836;SDS011;10079;55.740;37.662;2023-05-19T06:24:35;12.77;;;7.53;;
19836;SDS011;10079;55.740;37.662;2023-05-19T06:27:38;8.27;;;7.43;;
19836;SDS011;10079;55.740;37.662;2023-05-19T06:30:53;9.63;;;7.17;;
19836;SDS011;10079;55.740;37.662;2023-05-19T06:34:08;9.40;;;7.10;;
19836;SDS011;10079;55.740;37.662;2023-05-19T06:37:22;11.37;;;7.70;;
19836;SDS011;10079;55.740;37.662;2023-05-19T06:40:37;11.73;;;7.37;;
19836;SDS011;10079;55.740;37.662;2023-05-19T06:43:41;10.03;;;7.93;;
19836;SDS011;10079;55.740;37.662;2023-05-19T06:46:51;11.73;;;8.03;;
19836;SDS011;10079;55.740;37.662;2023-05-19T06:49:57;10.10;;;6.97;;
19836;SDS011;10079;55.740;37.662;2023-05-19T06:53:04;12.57;;;7.53;;
19836;SDS011;10079;55.740;37.662;2023-05-19T06:56:10;9.67;;;7.57;;
19836;SDS011;10079;55.740;37.662;2023-05-19T06:59:16;13.27;;;7.40;;
19836;SDS011;10079;55.740;37.662;2023-05-19T07:02:20;9.07;;;7.17;;
19836;SDS011;10079;55.740;37.662;2023-05-19T07:05:23;9.73;;;8.03;;
19836;SDS011;10079;55.740;37.662;2023-05-19T07:08:25;11.27;;;7.97;;
19836;SDS011;10079;55.740;37.662;2023-05-19T07:11:32;9.33;;;7.67;;
19836;SDS011;10079;55.740;37.662;2023-05-19T07:14:38;9.37;;;7.53;;
19836;SDS011;10079;55.740;37.662;2023-05-19T07:17:45;9.20;;;7.30;;
19836;SDS011;10079;55.740;37.662;2023-05-19T07:20:51;9.53;;;6.40;;
19836;SDS011;10079;55.740;37.662;2023-05-19T07:23:57;9.53;;;7.00;;
19836;SDS011;10079;55.740;37.662;2023-05-19T07:27:01;9.07;;;7.23;;
19836;SDS011;10079;55.740;37.662;2023-05-19T07:30:04;10.37;;;7.57;;
19836;SDS011;10079;55.740;37.662;2023-05-19T07:33:06;9.97;;;7.87;;
19836;SDS011;10079;55.740;37.662;2023-05-19T07:36:13;8.70;;;7.80;;
19836;SDS011;10079;55.740;37.662;2023-05-19T07:39:19;8.23;;;5.63;;
19836;SDS011;10079;55.740;37.662;2023-05-19T07:42:22;8.27;;;6.77;;
19836;SDS011;10079;55.740;37.662;2023-05-19T07:45:25;12.03;;;8.90;;
19836;SDS011;10079;55.740;37.662;2023-05-19T07:48:28;15.23;;;8.40;;
19836;SDS011;10079;55.740;37.662;2023-05-19T07:51:44;10.87;;;8.40;;
19836;SDS011;10079;55.740;37.662;2023-05-19T07:54:58;13.97;;;9.33;;
19836;SDS011;10079;55.740;37.662;2023-05-19T07:58:01;12.23;;;9.27;;
19836;SDS011;10079;55.740;37.662;2023-05-19T08:01:12;9.23;;;6.73;;
19836;SDS011;10079;55.740;37.662;2023-05-19T08:04:15;10.63;;;7.77;;
19836;SDS011;10079;55.740;37.662;2023-05-19T08:07:18;9.53;;;7.50;;
19836;SDS011;10079;55.740;37.662;2023-05-19T08:10:21;9.83;;;6.10;;
19836;SDS011;10079;55.740;37.662;2023-05-19T08:13:27;11.27;;;6.80;;
19836;SDS011;10079;55.740;37.662;2023-05-19T08:16:30;9.13;;;6.37;;
19836;SDS011;10079;55.740;37.662;2023-05-19T08:19:33;8.40;;;6.10;;
19836;SDS011;10079;55.740;37.662;2023-05-19T08:22:36;7.90;;;5.67;;
19836;SDS011;10079;55.740;37.662;2023-05-19T08:25:39;8.33;;;5.20;;
19836;SDS011;10079;55.740;37.662;2023-05-19T08:28:41;9.53;;;4.80;;
19836;SDS011;10079;55.740;37.662;2023-05-19T08:31:44;6.47;;;4.70;;
19836;SDS011;10079;55.740;37.662;2023-05-19T08:34:47;5.13;;;4.17;;
19836;SDS011;10079;55.740;37.662;2023-05-19T08:37:58;4.50;;;3.43;;
19836;SDS011;10079;55.740;37.662;2023-05-19T08:41:04;4.40;;;3.90;;
19836;SDS011;10079;55.740;37.662;2023-05-19T08:44:11;5.95;;;3.83;;
19836;SDS011;10079;55.740;37.662;2023-05-19T08:47:14;12.07;;;4.40;;
19836;SDS011;10079;55.740;37.662;2023-05-19T09:00:48;5.78;;;3.67;;
19836;SDS011;10079;55.740;37.662;2023-05-19T09:03:54;5.55;;;3.83;;
19836;SDS011;10079;55.740;37.662;2023-05-19T09:28:12;3.53;;;3.03;;
19836;SDS011;10079;55.740;37.662;2023-05-19T09:31:17;3.00;;;2.50;;
19836;SDS011;10079;55.740;37.662;2023-05-19T09:34:32;3.08;;;2.65;;
19836;SDS011;10079;55.740;37.662;2023-05-19T09:37:43;3.60;;;2.37;;
19836;SDS011;10079;55.740;37.662;2023-05-19T09:40:47;5.10;;;2.70;;
19836;SDS011;10079;55.740;37.662;2023-05-19T09:43:53;3.62;;;3.33;;
19836;SDS011;10079;55.740;37.662;2023-05-19T09:46:59;3.87;;;2.50;;
19836;SDS011;10079;55.740;37.662;2023-05-19T09:50:07;2.95;;;2.20;;
19836;SDS011;10079;55.740;37.662;2023-05-19T10:03:36;3.85;;;2.30;;
19836;SDS011;10079;55.740;37.662;2023-05-19T10:06:42;6.15;;;4.00;;
19836;SDS011;10079;55.740;37.662;2023-05-19T10:09:49;4.93;;;2.50;;
19836;SDS011;10079;55.740;37.662;2023-05-19T10:12:52;4.25;;;2.55;;
19836;SDS011;10079;55.740;37.662;2023-05-19T10:15:55;2.78;;;2.15;;
19836;SDS011;10079;55.740;37.662;2023-05-19T10:19:01;4.40;;;2.00;;
19836;SDS011;10079;55.740;37.662;2023-05-19T10:22:04;2.65;;;2.12;;
19836;SDS011;10079;55.740;37.662;2023-05-19T10:25:10;3.92;;;2.28;;
19836;SDS011;10079;55.740;37.662;2023-05-19T10:28:17;5.10;;;2.50;;
19836;SDS011;10079;55.740;37.662;2023-05-19T10:31:20;4.00;;;1.97;;
19836;SDS011;10079;55.740;37.662;2023-05-19T10:34:31;2.60;;;1.90;;
19836;SDS011;10079;55.740;37.662;2023-05-19T10:47:39;4.53;;;2.53;;
19836;SDS011;10079;55.740;37.662;2023-05-19T10:50:45;3.73;;;2.40;;
19836;SDS011;10079;55.740;37.662;2023-05-19T10:54:00;3.47;;;2.20;;
19836;SDS011;10079;55.740;37.662;2023-05-19T10:57:03;3.47;;;1.90;;
19836;SDS011;10079;55.740;37.662;2023-05-19T11:03:28;2.37;;;2.13;;
19836;SDS011;10079;55.740;37.662;2023-05-19T11:17:11;2.10;;;1.90;;
19836;SDS011;10079;55.740;37.662;2023-05-19T11:20:22;3.73;;;1.70;;
19836;SDS011;10079;55.740;37.662;2023-05-19T11:23:25;2.40;;;2.10;;
19836;SDS011;10079;55.740;37.662;2023-05-19T11:29:38;3.00;;;1.70;;
19836;SDS011;10079;55.740;37.662;2023-05-19T11:32:52;3.73;;;1.90;;
19836;SDS011;10079;55.740;37.662;2023-05-19T11:36:07;6.40;;;2.50;;
19836;SDS011;10079;55.740;37.662;2023-05-19T11:39:22;2.47;;;2.07;;
19836;SDS011;10079;55.740;37.662;2023-05-19T11:42:37;2.87;;;1.73;;
19836;SDS011;10079;55.740;37.662;2023-05-19T11:45:52;4.90;;;1.73;;
19836;SDS011;10079;55.740;37.662;2023-05-19T11:49:08;4.03;;;2.00;;
19836;SDS011;10079;55.740;37.662;2023-05-19T11:52:14;3.40;;;1.97;;
19836;SDS011;10079;55.740;37.662;2023-05-19T11:55:19;7.10;;;3.77;;
19836;SDS011;10079;55.740;37.662;2023-05-19T11:58:23;3.87;;;1.90;;
19836;SDS011;10079;55.740;37.662;2023-05-19T12:01:39;7.27;;;1.90;;
19836;SDS011;10079;55.740;37.662;2023-05-19T12:04:54;2.57;;;2.17;;
19836;SDS011;10079;55.740;37.662;2023-05-19T12:07:57;3.03;;;1.53;;
19836;SDS011;10079;55.740;37.662;2023-05-19T12:21:39;3.23;;;1.50;;
19836;SDS011;10079;55.740;37.662;2023-05-19T12:32:18;3.03;;;1.73;;
19836;SDS011;10079;55.740;37.662;2023-05-19T12:35:25;2.50;;;1.50;;
19836;SDS011;10079;55.740;37.662;2023-05-19T12:38:31;3.07;;;1.60;;
19836;SDS011;10079;55.740;37.662;2023-05-19T12:41:34;2.77;;;1.73;;
19836;SDS011;10079;55.740;37.662;2023-05-19T12:44:41;3.97;;;1.87;;
19836;SDS011;10079;55.740;37.662;2023-05-19T12:47:46;4.97;;;1.70;;
19836;SDS011;10079;55.740;37.662;2023-05-19T12:51:51;2.03;;;1.77;;
19836;SDS011;10079;55.740;37.662;2023-05-19T12:54:58;3.23;;;2.00;;
19836;SDS011;10079;55.740;37.662;2023-05-19T12:58:04;2.30;;;1.73;;
19836;SDS011;10079;55.740;37.662;2023-05-19T13:01:05;2.10;;;1.47;;
19836;SDS011;10079;55.740;37.662;2023-05-19T13:04:10;2.43;;;1.77;;
19836;SDS011;10079;55.740;37.662;2023-05-19T13:07:13;3.80;;;1.70;;
19836;SDS011;10079;55.740;37.662;2023-05-19T13:10:19;4.77;;;1.80;;
19836;SDS011;10079;55.740;37.662;2023-05-19T13:13:26;3.00;;;1.73;;
19836;SDS011;10079;55.740;37.662;2023-05-19T13:16:41;7.17;;;1.90;;
19836;SDS011;10079;55.740;37.662;2023-05-19T13:19:47;2.63;;;1.63;;
19836;SDS011;10079;55.740;37.662;2023-05-19T13:22:53;3.70;;;1.80;;
19836;SDS011;10079;55.740;37.662;2023-05-19T13:26:08;4.20;;;1.97;;
19836;SDS011;10079;55.740;37.662;2023-05-19T13:29:23;1.73;;;1.20;;
19836;SDS011;10079;55.740;37.662;2023-05-19T13:32:26;5.73;;;1.47;;
19836;SDS011;10079;55.740;37.662;2023-05-19T13:35:29;4.17;;;1.80;;
19836;SDS011;10079;55.740;37.662;2023-05-19T13:38:32;2.73;;;1.60;;
19836;SDS011;10079;55.740;37.662;2023-05-19T13:41:35;2.43;;;1.30;;
19836;SDS011;10079;55.740;37.662;2023-05-19T13:44:38;5.57;;;2.00;;
19836;SDS011;10079;55.740;37.662;2023-05-19T13:47:53;7.53;;;1.73;;
19836;SDS011;10079;55.740;37.662;2023-05-19T13:50:59;3.10;;;1.67;;
19836;SDS011;10079;55.740;37.662;2023-05-19T13:54:05;2.73;;;1.20;;
19836;SDS011;10079;55.740;37.662;2023-05-19T13:57:08;3.93;;;1.80;;
19836;SDS011;10079;55.740;37.662;2023-05-19T14:00:11;2.63;;;1.40;;
19836;SDS011;10079;55.740;37.662;2023-05-19T14:03:14;2.83;;;1.27;;
19836;SDS011;10079;55.740;37.662;2023-05-19T14:06:17;2.50;;;1.27;;
19836;SDS011;10079;55.740;37.662;2023-05-19T14:09:20;2.60;;;1.50;;
19836;SDS011;10079;55.740;37.662;2023-05-19T14:12:24;3.27;;;1.90;;
19836;SDS011;10079;55.740;37.662;2023-05-19T14:15:26;2.27;;;1.30;;
19836;SDS011;10079;55.740;37.662;2023-05-19T14:18:28;2.23;;;1.50;;
19836;SDS011;10079;55.740;37.662;2023-05-19T14:21:32;3.63;;;1.60;;
19836;SDS011;10079;55.740;37.662;2023-05-19T14:24:38;3.47;;;1.53;;
19836;SDS011;10079;55.740;37.662;2023-05-19T14:38:21;1.77;;;1.17;;
19836;SDS011;10079;55.740;37.662;2023-05-19T14:41:37;3.73;;;1.50;;
19836;SDS011;10079;55.740;37.662;2023-05-19T14:44:43;1.73;;;1.33;;
19836;SDS011;10079;55.740;37.662;2023-05-19T14:47:46;2.53;;;1.53;;
19836;SDS011;10079;55.740;37.662;2023-05-19T14:50:49;3.23;;;1.43;;
19836;SDS011;10079;55.740;37.662;2023-05-19T14:53:55;2.67;;;1.60;;
19836;SDS011;10079;55.740;37.662;2023-05-19T14:57:01;3.77;;;1.67;;
19836;SDS011;10079;55.740;37.662;2023-05-19T15:06:45;3.00;;;1.70;;
19836;SDS011;10079;55.740;37.662;2023-05-19T15:09:51;3.60;;;2.20;;
19836;SDS011;10079;55.740;37.662;2023-05-19T15:12:54;2.97;;;1.20;;
19836;SDS011;10079;55.740;37.662;2023-05-19T15:15:58;1.40;;;1.20;;
19836;SDS011;10079;55.740;37.662;2023-05-19T15:26:05;2.67;;;1.90;;
19836;SDS011;10079;55.740;37.662;2023-05-19T15:29:08;2.40;;;1.20;;
19836;SDS011;10079;55.740;37.662;2023-05-19T15:32:12;4.47;;;1.60;;
19836;SDS011;10079;55.740;37.662;2023-05-19T15:45:54;3.47;;;1.83;;
19836;SDS011;10079;55.740;37.662;2023-05-19T15:49:01;6.40;;;1.70;;
19836;SDS011;10079;55.740;37.662;2023-05-19T15:52:07;4.37;;;3.27;;
19836;SDS011;10079;55.740;37.662;2023-05-19T15:55:13;2.87;;;1.27;;
19836;SDS011;10079;55.740;37.662;2023-05-19T15:58:17;2.40;;;1.20;;
19836;SDS011;10079;55.740;37.662;2023-05-19T16:01:20;4.30;;;1.53;;
19836;SDS011;10079;55.740;37.662;2023-05-19T16:04:23;2.93;;;1.40;;
19836;SDS011;10079;55.740;37.662;2023-05-19T16:07:34;4.70;;;1.70;;
19836;SDS011;10079;55.740;37.662;2023-05-19T16:10:40;2.70;;;1.60;;
19836;SDS011;10079;55.740;37.662;2023-05-19T16:13:47;4.03;;;1.60;;
19836;SDS011;10079;55.740;37.662;2023-05-19T16:16:50;2.43;;;1.57;;
19836;SDS011;10079;55.740;37.662;2023-05-19T16:19:53;2.03;;;1.63;;
19836;SDS011;10079;55.740;37.662;2023-05-19T16:22:56;3.33;;;1.70;;
19836;SDS011;10079;55.740;37.662;2023-05-19T16:26:11;2.40;;;1.50;;
19836;SDS011;10079;55.740;37.662;2023-05-19T16:29:24;4.53;;;1.97;;
19836;SDS011;10079;55.740;37.662;2023-05-19T16:32:27;4.53;;;1.50;;
19836;SDS011;10079;55.740;37.662;2023-05-19T16:35:42;3.00;;;1.43;;
19836;SDS011;10079;55.740;37.662;2023-05-19T16:38:57;2.40;;;1.30;;
19836;SDS011;10079;55.740;37.662;2023-05-19T16:42:00;5.50;;;1.80;;
19836;SDS011;10079;55.740;37.662;2023-05-19T16:45:04;2.60;;;1.60;;
19836;SDS011;10079;55.740;37.662;2023-05-19T16:48:09;5.80;;;2.10;;
19836;SDS011;10079;55.740;37.662;2023-05-19T16:54:22;4.03;;;1.70;;
19836;SDS011;10079;55.740;37.662;2023-05-19T16:57:25;2.20;;;1.27;;
19836;SDS011;10079;55.740;37.662;2023-05-19T17:00:28;2.23;;;1.20;;
19836;SDS011;10079;55.740;37.662;2023-05-19T17:03:33;2.93;;;1.17;;
19836;SDS011;10079;55.740;37.662;2023-05-19T17:06:39;4.67;;;1.50;;
19836;SDS011;10079;55.740;37.662;2023-05-19T17:09:46;5.60;;;1.50;;
19836;SDS011;10079;55.740;37.662;2023-05-19T17:23:23;3.00;;;1.63;;
19836;SDS011;10079;55.740;37.662;2023-05-19T17:26:26;4.27;;;2.47;;
19836;SDS011;10079;55.740;37.662;2023-05-19T17:29:42;3.77;;;1.30;;
19836;SDS011;10079;55.740;37.662;2023-05-19T17:32:59;2.67;;;1.37;;
19836;SDS011;10079;55.740;37.662;2023-05-19T17:36:06;2.10;;;1.30;;
19836;SDS011;10079;55.740;37.662;2023-05-19T17:39:12;5.33;;;1.53;;
19836;SDS011;10079;55.740;37.662;2023-05-19T17:42:28;2.67;;;1.37;;
19836;SDS011;10079;55.740;37.662;2023-05-19T17:56:05;6.67;;;1.87;;
19836;SDS011;10079;55.740;37.662;2023-05-19T17:59:09;5.00;;;1.80;;
19836;SDS011;10079;55.740;37.662;2023-05-19T18:02:13;3.93;;;1.20;;
19836;SDS011;10079;55.740;37.662;2023-05-19T18:05:15;1.83;;;1.40;;
19836;SDS011;10079;55.740;37.662;2023-05-19T18:08:22;3.83;;;1.30;;
19836;SDS011;10079;55.740;37.662;2023-05-19T18:11:37;3.27;;;1.60;;
19836;SDS011;10079;55.740;37.662;2023-05-19T18:14:52;5.67;;;1.40;;
19836;SDS011;10079;55.740;37.662;2023-05-19T18:17:55;4.47;;;1.50;;
19836;SDS011;10079;55.740;37.662;2023-05-19T18:20:57;4.10;;;1.53;;
19836;SDS011;10079;55.740;37.662;2023-05-19T18:24:00;1.70;;;0.90;;
19836;SDS011;10079;55.740;37.662;2023-05-19T18:27:06;3.00;;;1.23;;
19836;SDS011;10079;55.740;37.662;2023-05-19T18:30:12;2.40;;;1.30;;
19836;SDS011;10079;55.740;37.662;2023-05-19T18:33:17;5.10;;;1.60;;
19836;SDS011;10079;55.740;37.662;2023-05-19T18:36:21;4.50;;;1.30;;
19836;SDS011;10079;55.740;37.662;2023-05-19T18:39:26;3.43;;;1.57;;
19836;SDS011;10079;55.740;37.662;2023-05-19T18:42:41;3.00;;;1.37;;
19836;SDS011;10079;55.740;37.662;2023-05-19T18:45:47;2.30;;;1.57;;
19836;SDS011;10079;55.740;37.662;2023-05-19T18:48:53;3.10;;;1.40;;
19836;SDS011;10079;55.740;37.662;2023-05-19T18:52:05;3.30;;;1.33;;
19836;SDS011;10079;55.740;37.662;2023-05-19T18:55:09;1.30;;;1.10;;
19836;SDS011;10079;55.740;37.662;2023-05-19T18:58:16;3.87;;;1.30;;
19836;SDS011;10079;55.740;37.662;2023-05-19T19:01:31;3.00;;;1.20;;
19836;SDS011;10079;55.740;37.662;2023-05-19T19:04:43;6.47;;;1.20;;
19836;SDS011;10079;55.740;37.662;2023-05-19T19:07:54;6.23;;;1.30;;
19836;SDS011;10079;55.740;37.662;2023-05-19T19:11:00;2.20;;;1.30;;
19836;SDS011;10079;55.740;37.662;2023-05-19T19:14:16;2.13;;;1.40;;
19836;SDS011;10079;55.740;37.662;2023-05-19T19:17:32;2.10;;;1.20;;
19836;SDS011;10079;55.740;37.662;2023-05-19T19:20:36;4.77;;;1.93;;
19836;SDS011;10079;55.740;37.662;2023-05-19T19:23:38;2.23;;;1.30;;
19836;SDS011;10079;55.740;37.662;2023-05-19T19:26:42;4.77;;;1.70;;
19836;SDS011;10079;55.740;37.662;2023-05-19T19:29:45;4.03;;;1.63;;
19836;SDS011;10079;55.740;37.662;2023-05-19T19:32:48;2.97;;;1.50;;
19836;SDS011;10079;55.740;37.662;2023-05-19T19:35:50;4.80;;;1.60;;
19836;SDS011;10079;55.740;37.662;2023-05-19T19:38:54;3.83;;;1.70;;
19836;SDS011;10079;55.740;37.662;2023-05-19T19:41:57;2.57;;;1.57;;
19836;SDS011;10079;55.740;37.662;2023-05-19T19:45:00;6.60;;;2.27;;
19836;SDS011;10079;55.740;37.662;2023-05-19T19:48:05;2.80;;;1.70;;
19836;SDS011;10079;55.740;37.662;2023-05-19T19:51:11;4.63;;;2.13;;
19836;SDS011;10079;55.740;37.662;2023-05-19T19:54:18;3.13;;;1.53;;
19836;SDS011;10079;55.740;37.662;2023-05-19T19:57:24;2.10;;;1.30;;
19836;SDS011;10079;55.740;37.662;2023-05-19T20:00:40;4.07;;;1.53;;
19836;SDS011;10079;55.740;37.662;2023-05-19T20:03:45;2.90;;;1.40;;
19836;SDS011;10079;55.740;37.662;2023-05-19T20:06:52;2.13;;;1.37;;
19836;SDS011;10079;55.740;37.662;2023-05-19T20:10:08;3.47;;;1.60;;
19836;SDS011;10079;55.740;37.662;2023-05-19T20:16:50;5.03;;;1.70;;
19836;SDS011;10079;55.740;37.662;2023-05-19T20:30:24;6.53;;;1.70;;
19836;SDS011;10079;55.740;37.662;2023-05-19T20:33:39;5.10;;;1.60;;
19836;SDS011;10079;55.740;37.662;2023-05-19T20:36:54;3.47;;;1.47;;
19836;SDS011;10079;55.740;37.662;2023-05-19T20:50:32;2.77;;;1.57;;
19836;SDS011;10079;55.740;37.662;2023-05-19T20:53:35;4.03;;;1.60;;
19836;SDS011;10079;55.740;37.662;2023-05-19T20:56:47;3.23;;;1.40;;
19836;SDS011;10079;55.740;37.662;2023-05-19T21:00:02;4.07;;;1.50;;
19836;SDS011;10079;55.740;37.662;2023-05-19T21:03:05;2.13;;;1.40;;
19836;SDS011;10079;55.740;37.662;2023-05-19T21:06:08;4.33;;;1.70;;
19836;SDS011;10079;55.740;37.662;2023-05-19T21:09:14;3.53;;;1.50;;
19836;SDS011;10079;55.740;37.662;2023-05-19T21:12:21;2.77;;;1.37;;
19836;SDS011;10079;55.740;37.662;2023-05-19T21:15:24;3.70;;;1.50;;
19836;SDS011;10079;55.740;37.662;2023-05-19T21:18:28;3.63;;;1.40;;
19836;SDS011;10079;55.740;37.662;2023-05-19T21:21:33;2.03;;;1.33;;
19836;SDS011;10079;55.740;37.662;2023-05-19T21:24:36;2.60;;;1.50;;
19836;SDS011;10079;55.740;37.662;2023-05-19T21:27:42;3.53;;;1.53;;
19836;SDS011;10079;55.740;37.662;2023-05-19T21:30:48;2.60;;;1.53;;
19836;SDS011;10079;55.740;37.662;2023-05-19T21:33:54;2.63;;;1.50;;
19836;SDS011;10079;55.740;37.662;2023-05-19T21:37:01;3.00;;;1.40;;
19836;SDS011;10079;55.740;37.662;2023-05-19T21:40:15;3.73;;;1.20;;
19836;SDS011;10079;55.740;37.662;2023-05-19T21:43:31;3.77;;;1.30;;
19836;SDS011;10079;55.740;37.662;2023-05-19T21:46:46;1.73;;;1.00;;
19836;SDS011;10079;55.740;37.662;2023-05-19T21:49:53;2.43;;;1.60;;
19836;SDS011;10079;55.740;37.662;2023-05-19T21:52:56;1.83;;;1.37;;
19836;SDS011;10079;55.740;37.662;2023-05-19T21:56:10;1.63;;;1.20;;
19836;SDS011;10079;55.740;37.662;2023-05-19T21:59:13;5.43;;;1.20;;
19836;SDS011;10079;55.740;37.662;2023-05-19T22:02:16;4.73;;;1.50;;